KECU

Edwards County Airport

Rocksprings, Texas, USA
METAR KECU 151855Z AUTO 26015G23KT 10SM CLR 27/06 A2986 RMK AO2
Observed Flight Rules
Feb-15 @ 18:55 UTC (13 minutes ago) Visual Flight Rules
Wind Visibility Clouds
260° at 15 knots
 Gusting to 23 knots
10 miles
  • Clear skies
Temperatures Readings
Current 27°C / 81°F
Dewpoint 6°C / 43°F
Humidity 26%
Altimeter 29.86" Hg
Pressure 1011.22 hPa
Elevation 725
METAR KECU 151855Z AUTO 26015G23KT 10SM CLR 27/06 A2986 RMK AO2
Observed Flight Rules
Feb-15 @ 18:55 UTC
(13 minutes ago)
VFR
Wind Visibility
260° at 15 knots
 Gusting to 23 knots
10 miles
Clouds
  • Clear skies
Temperature Dewpoint
27°C / 81°F 6°C / 43°F
Humidity Altimeter Pressure
26% 29.86" Hg 1011.22 hPa